createdAt,value
2022-12-26T00:02:28.475Z,100224.75
2022-12-26T00:05:14.456Z,100223.03
2022-12-26T00:07:59.555Z,100239.41
2022-12-26T00:10:44.649Z,100232.50
2022-12-26T00:13:38.969Z,100226.50
2022-12-26T00:16:26.891Z,100226.47
2022-12-26T00:19:12.709Z,100228.19
2022-12-26T00:21:58.024Z,100225.66
2022-12-26T00:24:43.281Z,100224.72
2022-12-26T00:27:28.468Z,100241.09
2022-12-26T00:30:13.987Z,100245.41
2022-12-26T00:32:59.398Z,100247.13
2022-12-26T00:35:44.161Z,100246.22
2022-12-26T00:38:29.033Z,100247.94
2022-12-26T00:41:15.606Z,100245.31
2022-12-26T00:44:00.841Z,100256.56
2022-12-26T00:46:46.104Z,100252.28
2022-12-26T00:50:11.376Z,100249.75
2022-12-26T00:52:36.612Z,100242.78
2022-12-26T00:55:22.224Z,100245.31
2022-12-26T00:58:07.528Z,100237.53
2022-12-26T01:00:54.318Z,100247.84
2022-12-26T01:03:39.502Z,100242.69
2022-12-26T01:06:24.846Z,100246.97
2022-12-26T01:09:09.628Z,100250.56
2022-12-26T01:11:55.029Z,100251.44
2022-12-26T01:14:40.106Z,100255.69
2022-12-26T01:17:26.958Z,100252.19
2022-12-26T01:20:12.194Z,100248.66
2022-12-26T01:22:57.320Z,100265.88
2022-12-26T01:26:18.577Z,100280.50
2022-12-26T01:28:51.105Z,100282.25
2022-12-26T01:31:36.254Z,100285.69
2022-12-26T01:34:21.689Z,100288.28
2022-12-26T01:37:06.848Z,100274.50
2022-12-26T01:39:51.940Z,100279.72
2022-12-26T01:42:40.829Z,100288.28
2022-12-26T01:45:25.628Z,100306.41
2022-12-26T01:48:20.649Z,100291.72
2022-12-26T01:51:06.703Z,100290.03
2022-12-26T01:53:55.650Z,100296.06
2022-12-26T01:57:04.763Z,100303.81
2022-12-26T01:59:51.976Z,100296.06
2022-12-26T02:02:37.650Z,100295.16
2022-12-26T02:05:25.005Z,100296.91
2022-12-26T02:08:19.056Z,100298.63
2022-12-26T02:11:17.685Z,100284.84
2022-12-26T02:14:06.728Z,100285.69
2022-12-26T02:16:51.652Z,100293.34
2022-12-26T02:19:55.364Z,100286.44
2022-12-26T02:22:49.674Z,100275.31
2022-12-26T02:25:56.418Z,100282.19
2022-12-26T02:28:56.797Z,100280.50
2022-12-26T02:32:08.107Z,100280.50
2022-12-26T02:35:20.824Z,100276.94
2022-12-26T02:38:24.817Z,100287.22
2022-12-26T02:41:15.799Z,100298.47
2022-12-26T02:44:15.757Z,100303.63
2022-12-26T02:47:15.777Z,100306.22
2022-12-26T02:50:15.225Z,100307.94
2022-12-26T02:53:14.597Z,100294.13
2022-12-26T02:56:06.818Z,100302.72
2022-12-26T02:59:18.032Z,100289.81
2022-12-26T03:02:06.317Z,100300.06
2022-12-26T03:04:54.315Z,100299.25
2022-12-26T03:07:42.361Z,100301.84
2022-12-26T03:10:35.037Z,100310.44
2022-12-26T03:13:26.203Z,100300.16
2022-12-26T03:16:13.641Z,100299.22
2022-12-26T03:19:03.250Z,100306.94
2022-12-26T03:21:48.459Z,100286.22
2022-12-26T03:24:33.767Z,100281.88
2022-12-26T03:27:18.875Z,100297.31
2022-12-26T03:30:05.048Z,100299.84
2022-12-26T03:32:50.366Z,100310.28
2022-12-26T03:35:35.895Z,100314.47
2022-12-26T03:38:26.756Z,100310.22
2022-12-26T03:41:24.108Z,100320.59
2022-12-26T03:44:41.479Z,100317.97
2022-12-26T03:47:47.459Z,100326.59
2022-12-26T03:50:32.644Z,100311.91
2022-12-26T03:53:23.626Z,100315.41
2022-12-26T03:56:21.696Z,100308.50
2022-12-26T03:59:25.532Z,100311.88
2022-12-26T04:02:12.041Z,100311.00
2022-12-26T04:05:01.224Z,100311.81
2022-12-26T04:07:58.290Z,100317.00
2022-12-26T04:10:49.515Z,100321.34
2022-12-26T04:13:59.236Z,100312.69
2022-12-26T04:17:02.935Z,100319.56
2022-12-26T04:20:06.547Z,100325.69
2022-12-26T04:23:03.157Z,100323.03
2022-12-26T04:26:15.542Z,100329.03
2022-12-26T04:29:00.934Z,100317.00
2022-12-26T04:31:57.276Z,100310.06
2022-12-26T04:34:50.986Z,100311.78
2022-12-26T04:37:42.865Z,100305.81
2022-12-26T04:40:34.161Z,100328.19
2022-12-26T04:43:47.092Z,100325.56
2022-12-26T04:46:26.797Z,100332.44
2022-12-26T04:49:15.866Z,100334.22
2022-12-26T04:52:03.977Z,100348.75
2022-12-26T04:54:51.642Z,100347.97
2022-12-26T04:57:36.676Z,100356.53
2022-12-26T05:00:23.891Z,100358.25
2022-12-26T05:03:18.590Z,100357.41
2022-12-26T05:06:05.055Z,100363.38
2022-12-26T05:08:50.445Z,100368.59
2022-12-26T05:11:35.755Z,100372.00
2022-12-26T05:14:21.029Z,100366.88
2022-12-26T05:17:07.123Z,100368.53
2022-12-26T05:19:52.577Z,100371.13
2022-12-26T05:22:41.566Z,100371.94
2022-12-26T05:25:30.050Z,100371.94
2022-12-26T05:28:16.454Z,100383.94
2022-12-26T05:31:02.761Z,100384.75
2022-12-26T05:33:47.803Z,100386.44
2022-12-26T05:36:38.795Z,100383.78
2022-12-26T05:39:24.630Z,100378.69
2022-12-26T05:42:10.006Z,100388.91
2022-12-26T05:44:55.442Z,100390.63
2022-12-26T05:47:40.362Z,100374.28
2022-12-26T05:50:25.702Z,100364.78
2022-12-26T05:53:10.653Z,100367.19
2022-12-26T05:55:55.863Z,100368.91
2022-12-26T05:58:41.511Z,100384.38
2022-12-26T06:01:28.348Z,100375.72
2022-12-26T06:04:13.385Z,100388.66
2022-12-26T06:06:58.465Z,100385.16
2022-12-26T06:09:43.763Z,100397.22
2022-12-26T06:12:29.101Z,100394.63
2022-12-26T06:15:14.140Z,100399.84
2022-12-26T06:17:59.363Z,100400.75
2022-12-26T06:20:44.472Z,100407.59
2022-12-26T06:23:30.217Z,100394.69
2022-12-26T06:26:16.619Z,100401.56
2022-12-26T06:29:01.713Z,100402.44
2022-12-26T06:31:47.248Z,100393.88
2022-12-26T06:34:32.663Z,100378.38
2022-12-26T06:37:17.739Z,100386.91
2022-12-26T06:40:02.574Z,100383.53
2022-12-26T06:42:47.768Z,100368.88
2022-12-26T06:45:32.895Z,100364.47
2022-12-26T06:48:17.960Z,100366.25
2022-12-26T06:51:04.620Z,100376.50
2022-12-26T06:53:51.454Z,100372.91
2022-12-26T06:56:36.795Z,100366.13
2022-12-26T06:59:22.282Z,100367.06
2022-12-26T07:02:10.545Z,100355.81
2022-12-26T07:04:55.695Z,100343.78
2022-12-26T07:07:41.325Z,100357.44
2022-12-26T07:10:26.741Z,100370.22
2022-12-26T07:13:11.944Z,100378.78
2022-12-26T07:16:00.381Z,100379.66
2022-12-26T07:18:45.891Z,100387.34
2022-12-26T07:21:36.343Z,100403.72
2022-12-26T07:24:25.072Z,100410.59
2022-12-26T07:27:10.531Z,100408.09
2022-12-26T07:29:55.885Z,100408.84
2022-12-26T07:32:40.894Z,100402.81
2022-12-26T07:35:25.835Z,100402.81
2022-12-26T07:38:12.065Z,100403.63
2022-12-26T07:40:57.925Z,100406.25
2022-12-26T07:43:43.017Z,100400.97
2022-12-26T07:46:27.878Z,100411.31
2022-12-26T07:49:13.304Z,100420.81
2022-12-26T07:51:58.472Z,100428.50
2022-12-26T07:54:43.357Z,100419.84
2022-12-26T07:57:48.107Z,100419.03
2022-12-26T08:00:33.818Z,100418.94
2022-12-26T08:03:19.332Z,100419.03
2022-12-26T08:06:04.439Z,100424.19
2022-12-26T08:08:51.629Z,100428.31
2022-12-26T08:11:36.573Z,100432.69
2022-12-26T08:14:21.606Z,100449.06
2022-12-26T08:17:07.499Z,100441.34
2022-12-26T08:19:52.870Z,100436.28
2022-12-26T08:22:38.278Z,100422.44
2022-12-26T08:25:24.240Z,100434.44
2022-12-26T08:28:09.678Z,100423.41
2022-12-26T08:30:55.083Z,100431.13
2022-12-26T08:33:40.934Z,100422.63
2022-12-26T08:36:27.088Z,100420.06
2022-12-26T08:39:12.292Z,100420.91
2022-12-26T08:41:57.203Z,100439.91
2022-12-26T08:44:42.434Z,100440.00
2022-12-26T08:47:27.390Z,100437.44
2022-12-26T08:50:12.675Z,100447.00
2022-12-26T08:52:58.113Z,100437.59
2022-12-26T08:55:43.379Z,100428.19
2022-12-26T08:58:29.851Z,100431.63
2022-12-26T09:01:27.013Z,100436.72
2022-12-26T09:04:12.377Z,100441.94
2022-12-26T09:06:57.293Z,100459.25
2022-12-26T09:09:42.419Z,100435.22
2022-12-26T09:12:27.751Z,100454.19
2022-12-26T09:15:12.932Z,100451.56
2022-12-26T09:17:57.865Z,100456.88
2022-12-26T09:20:43.306Z,100456.19
2022-12-26T09:23:29.630Z,100451.81
2022-12-26T09:26:19.400Z,100450.97
2022-12-26T09:29:04.817Z,100446.75
2022-12-26T09:31:49.684Z,100451.84
2022-12-26T09:34:34.761Z,100455.31
2022-12-26T09:37:20.210Z,100446.75
2022-12-26T09:40:05.991Z,100449.34
2022-12-26T09:43:19.481Z,100457.25
2022-12-26T09:46:32.199Z,100462.66
2022-12-26T09:49:41.042Z,100463.66
2022-12-26T09:52:41.822Z,100463.75
2022-12-26T09:55:49.075Z,100454.56
2022-12-26T09:58:40.334Z,100455.47
2022-12-26T10:01:30.770Z,100438.41
2022-12-26T10:04:29.944Z,100440.41
2022-12-26T10:07:42.161Z,100425.72
2022-12-26T10:10:51.208Z,100410.13
2022-12-26T10:13:57.064Z,100398.13
2022-12-26T10:17:01.161Z,100404.34
2022-12-26T10:20:01.175Z,100388.84
2022-12-26T10:22:58.573Z,100387.06
2022-12-26T10:25:55.918Z,100393.16
2022-12-26T10:28:47.807Z,100401.94
2022-12-26T10:31:48.326Z,100401.06
2022-12-26T10:34:52.421Z,100409.53
2022-12-26T10:37:41.864Z,100393.06
2022-12-26T10:40:37.391Z,100411.94
2022-12-26T10:43:28.269Z,100407.63
2022-12-26T10:46:44.100Z,100404.16
2022-12-26T10:49:29.708Z,100404.09
2022-12-26T10:52:17.614Z,100408.47
2022-12-26T10:55:29.004Z,100409.28
2022-12-26T10:58:30.268Z,100416.16
2022-12-26T11:01:37.292Z,100409.34
2022-12-26T11:05:01.950Z,100400.66
2022-12-26T11:07:33.832Z,100402.47
2022-12-26T11:10:26.413Z,100388.75
2022-12-26T11:13:19.788Z,100387.09
2022-12-26T11:16:05.974Z,100382.00
2022-12-26T11:18:51.877Z,100394.09
2022-12-26T11:21:37.143Z,100381.22
2022-12-26T11:24:22.134Z,100392.41
2022-12-26T11:27:19.665Z,100381.22
2022-12-26T11:30:15.732Z,100378.66
2022-12-26T11:33:16.086Z,100383.84
2022-12-26T11:36:16.350Z,100387.25
2022-12-26T11:39:17.760Z,100381.19
2022-12-26T11:42:19.610Z,100377.72
2022-12-26T11:45:11.613Z,100371.72
2022-12-26T11:47:59.667Z,100360.53
2022-12-26T11:50:46.468Z,100354.38
2022-12-26T11:53:31.762Z,100375.78
2022-12-26T11:56:25.834Z,100416.69
2022-12-26T11:59:22.332Z,100457.53
2022-12-26T12:02:18.115Z,100461.69
2022-12-26T12:05:15.253Z,100469.13
2022-12-26T12:08:19.393Z,100476.84
2022-12-26T12:11:21.758Z,100458.81
2022-12-26T12:14:19.276Z,100475.06
2022-12-26T12:17:37.323Z,100458.88
2022-12-26T12:20:51.874Z,100457.59
2022-12-26T12:23:59.553Z,100452.69
2022-12-26T12:27:05.605Z,100449.22
2022-12-26T12:30:15.437Z,100445.72
2022-12-26T12:33:21.196Z,100431.94
2022-12-26T12:36:37.106Z,100425.28
2022-12-26T12:39:39.368Z,100433.19
2022-12-26T12:42:48.095Z,100417.81
2022-12-26T12:45:55.264Z,100410.97
2022-12-26T12:49:06.349Z,100406.69
2022-12-26T12:52:34.856Z,100389.41
2022-12-26T12:55:41.989Z,100392.81
2022-12-26T12:58:47.270Z,100388.50
2022-12-26T13:01:42.366Z,100382.50
2022-12-26T13:04:36.049Z,100410.19
2022-12-26T13:07:27.229Z,100394.63
2022-12-26T13:10:28.608Z,100386.88
2022-12-26T13:13:22.138Z,100374.84
2022-12-26T13:16:14.044Z,100373.88
2022-12-26T13:19:10.241Z,100376.47
2022-12-26T13:22:04.117Z,100426.25
2022-12-26T13:24:56.563Z,100446.25
2022-12-26T13:27:42.060Z,100468.84
2022-12-26T13:30:27.526Z,100478.59
2022-12-26T13:33:15.115Z,100493.84
2022-12-26T13:36:03.724Z,100512.63
2022-12-26T13:38:58.404Z,100502.94
2022-12-26T13:41:51.990Z,100512.50
2022-12-26T13:44:38.109Z,100518.53
2022-12-26T13:47:36.923Z,100526.34
2022-12-26T13:50:55.348Z,100537.56
2022-12-26T13:53:41.852Z,100542.22
2022-12-26T13:56:27.996Z,100545.16
2022-12-26T13:59:32.251Z,100549.78
2022-12-26T14:03:16.818Z,100542.50
2022-12-26T14:06:15.013Z,100553.59
2022-12-26T14:09:20.469Z,100562.97
2022-12-26T14:12:44.702Z,100577.28
2022-12-26T14:15:44.503Z,100579.81
2022-12-26T14:18:58.526Z,100576.25
2022-12-26T14:21:51.955Z,100575.09
2022-12-26T14:25:01.507Z,100584.03
2022-12-26T14:28:03.446Z,100603.88
2022-12-26T14:31:09.651Z,100617.50
2022-12-26T14:34:10.956Z,100619.53
2022-12-26T14:37:13.083Z,100623.69
2022-12-26T14:40:01.108Z,100612.75
2022-12-26T14:43:17.594Z,100621.09
2022-12-26T14:46:09.382Z,100622.34
2022-12-26T14:48:58.293Z,100629.53
2022-12-26T14:51:44.318Z,100632.66
2022-12-26T14:54:37.929Z,100633.09
2022-12-26T14:57:43.865Z,100622.00
2022-12-26T15:00:30.776Z,100616.94
2022-12-26T15:03:48.481Z,100615.31
2022-12-26T15:06:43.032Z,100611.97
2022-12-26T15:09:41.460Z,100623.69
2022-12-26T15:12:48.050Z,100622.72
2022-12-26T15:16:18.922Z,100629.56
2022-12-26T15:19:19.517Z,100635.38
2022-12-26T15:22:19.544Z,100652.09
2022-12-26T15:25:23.213Z,100667.53
2022-12-26T15:28:15.986Z,100677.91
2022-12-26T15:31:13.643Z,100676.47
2022-12-26T15:34:01.712Z,100697.91
2022-12-26T15:37:00.540Z,100698.81
2022-12-26T15:40:01.219Z,100697.81
2022-12-26T15:42:59.147Z,100700.38
2022-12-26T15:45:56.319Z,100702.47
2022-12-26T15:48:59.431Z,100706.94
2022-12-26T15:51:56.117Z,100707.59
2022-12-26T15:55:05.788Z,100719.94
2022-12-26T15:58:02.897Z,100717.50
2022-12-26T16:00:54.514Z,100719.41
2022-12-26T16:03:46.365Z,100724.06
2022-12-26T16:06:56.571Z,100738.88
2022-12-26T16:09:46.351Z,100738.16
2022-12-26T16:12:34.921Z,100747.56
2022-12-26T16:15:21.490Z,100732.97
2022-12-26T16:18:19.004Z,100728.66
2022-12-26T16:21:06.772Z,100733.94
2022-12-26T16:23:54.284Z,100732.16
2022-12-26T16:26:45.978Z,100752.13
2022-12-26T16:29:32.074Z,100751.19
2022-12-26T16:32:20.434Z,100761.91
2022-12-26T16:35:07.946Z,100759.97
2022-12-26T16:37:56.237Z,100769.91
2022-12-26T16:40:49.345Z,100770.50
2022-12-26T16:43:34.559Z,100779.53
2022-12-26T16:46:22.687Z,100789.25
2022-12-26T16:49:10.557Z,100790.22
2022-12-26T16:51:56.067Z,100800.13
2022-12-26T16:54:40.864Z,100802.59
2022-12-26T16:57:26.433Z,100810.41
2022-12-26T17:00:18.396Z,100804.50
2022-12-26T17:03:08.872Z,100811.41
2022-12-26T17:05:54.740Z,100820.78
2022-12-26T17:08:47.282Z,100824.84
2022-12-26T17:11:39.482Z,100837.56
2022-12-26T17:14:31.245Z,100853.59
2022-12-26T17:17:22.411Z,100852.88
2022-12-26T17:20:22.839Z,100850.25
2022-12-26T17:23:33.526Z,100844.88
2022-12-26T17:26:30.239Z,100850.72
2022-12-26T17:29:35.281Z,100848.03
2022-12-26T17:32:30.148Z,100865.56
2022-12-26T17:35:19.813Z,100864.69
2022-12-26T17:38:16.093Z,100857.88
2022-12-26T17:41:04.146Z,100859.19
2022-12-26T17:43:49.621Z,100848.75
2022-12-26T17:46:34.745Z,100849.31
2022-12-26T17:49:20.028Z,100853.38
2022-12-26T17:52:05.924Z,100854.69
2022-12-26T17:54:51.507Z,100853.63
2022-12-26T17:57:36.734Z,100853.69
2022-12-26T18:00:25.024Z,100848.56
2022-12-26T18:03:17.650Z,100840.41
2022-12-26T18:06:03.747Z,100838.63
2022-12-26T18:08:49.255Z,100849.56
2022-12-26T18:11:34.289Z,100851.94
2022-12-26T18:14:21.456Z,100860.69
2022-12-26T18:17:07.705Z,100869.00
2022-12-26T18:19:52.853Z,100877.72
2022-12-26T18:22:38.775Z,100880.59
2022-12-26T18:25:25.830Z,100893.13
2022-12-26T18:28:13.319Z,100890.47
2022-12-26T18:30:58.240Z,100891.69
2022-12-26T18:33:43.275Z,100892.44
2022-12-26T18:36:34.809Z,100897.72
2022-12-26T18:39:20.163Z,100909.75
2022-12-26T18:42:06.788Z,100915.53
2022-12-26T18:44:55.139Z,100905.38
2022-12-26T18:47:40.511Z,100904.28
2022-12-26T18:50:26.301Z,100905.03
2022-12-26T18:53:12.209Z,100905.91
2022-12-26T18:55:57.235Z,100903.19
2022-12-26T18:58:42.585Z,100911.44
2022-12-26T19:01:28.058Z,100918.78
2022-12-26T19:04:15.465Z,100921.09
2022-12-26T19:07:00.712Z,100928.06
2022-12-26T19:09:50.028Z,100927.31
2022-12-26T19:12:35.159Z,100935.88
2022-12-26T19:15:21.053Z,100945.44
2022-12-26T19:18:06.207Z,100959.28
2022-12-26T19:20:51.383Z,100972.09
2022-12-26T19:23:36.862Z,100984.50
2022-12-26T19:26:22.878Z,100992.44
2022-12-26T19:29:09.159Z,100996.97
2022-12-26T19:31:54.139Z,100995.78
2022-12-26T19:34:39.603Z,101015.91
2022-12-26T19:37:24.622Z,101017.22
2022-12-26T19:40:11.208Z,101020.59
2022-12-26T19:42:56.616Z,101017.22
2022-12-26T19:45:41.838Z,101029.06
2022-12-26T19:48:27.002Z,101032.66
2022-12-26T19:51:14.462Z,101032.50
2022-12-26T19:53:59.726Z,101045.66
2022-12-26T19:56:45.235Z,101041.75
2022-12-26T19:59:30.422Z,101046.25
2022-12-26T20:02:15.870Z,101055.09
2022-12-26T20:05:01.249Z,101059.44
2022-12-26T20:07:46.679Z,101072.25
2022-12-26T20:10:31.843Z,101075.19
2022-12-26T20:13:19.675Z,101080.00
2022-12-26T20:16:07.404Z,101091.94
2022-12-26T20:18:54.180Z,101082.06
2022-12-26T20:21:39.531Z,101090.25
2022-12-26T20:24:25.463Z,101102.31
2022-12-26T20:27:10.627Z,101102.25
2022-12-26T20:29:56.013Z,101102.00
2022-12-26T20:32:41.358Z,101096.81
2022-12-26T20:35:26.849Z,101099.44
2022-12-26T20:38:12.437Z,101105.53
2022-12-26T20:41:01.181Z,101090.91
2022-12-26T20:43:47.919Z,101097.31
2022-12-26T20:46:34.998Z,101101.81
2022-12-26T20:49:20.541Z,101113.63
2022-12-26T20:52:05.956Z,101100.19
2022-12-26T20:54:51.171Z,101100.94
2022-12-26T20:57:36.586Z,101104.81
2022-12-26T21:00:22.147Z,101106.91
2022-12-26T21:03:07.272Z,101117.44
2022-12-26T21:05:52.798Z,101122.72
2022-12-26T21:08:39.164Z,101122.09
2022-12-26T21:11:30.225Z,101127.81
2022-12-26T21:14:18.874Z,101116.66
2022-12-26T21:17:04.075Z,101128.06
2022-12-26T21:19:49.405Z,101131.97
2022-12-26T21:22:34.629Z,101151.44
2022-12-26T21:25:21.115Z,101154.25
2022-12-26T21:28:06.422Z,101144.25
2022-12-26T21:30:51.783Z,101157.41
2022-12-26T21:33:44.261Z,101152.69
2022-12-26T21:36:31.009Z,101162.69
2022-12-26T21:39:16.401Z,101160.94
2022-12-26T21:42:02.725Z,101173.09
2022-12-26T21:44:47.895Z,101169.03
2022-12-26T21:47:33.202Z,101172.00
2022-12-26T21:50:18.597Z,101177.91
2022-12-26T21:53:04.109Z,101167.75
2022-12-26T21:55:49.313Z,101167.91
2022-12-26T21:58:35.094Z,101160.41
2022-12-26T22:01:21.835Z,101163.13
2022-12-26T22:04:11.943Z,101156.72
2022-12-26T22:06:57.196Z,101160.97
2022-12-26T22:09:42.619Z,101177.28
2022-12-26T22:12:28.559Z,101155.75
2022-12-26T22:15:17.135Z,101166.47
2022-12-26T22:18:02.308Z,101167.78
2022-12-26T22:20:48.071Z,101167.91
2022-12-26T22:23:34.017Z,101171.56
2022-12-26T22:26:21.326Z,101178.34
2022-12-26T22:29:06.471Z,101185.69
2022-12-26T22:31:51.880Z,101195.22
2022-12-26T22:34:37.103Z,101196.69
2022-12-26T22:37:22.407Z,101196.78
2022-12-26T22:40:08.317Z,101212.84
2022-12-26T22:42:53.809Z,101229.94
2022-12-26T22:45:40.131Z,101222.97
2022-12-26T22:48:25.652Z,101228.19
2022-12-26T22:51:20.565Z,101226.13
2022-12-26T22:54:05.669Z,101219.88
2022-12-26T22:56:50.717Z,101218.94
2022-12-26T23:00:06.935Z,101212.13
2022-12-26T23:02:41.211Z,101208.00
2022-12-26T23:05:27.142Z,101223.88
2022-12-26T23:08:24.893Z,101231.19
2022-12-26T23:11:10.294Z,101223.41
2022-12-26T23:13:56.106Z,101229.22
2022-12-26T23:16:49.567Z,101228.19
2022-12-26T23:19:43.024Z,101231.00
2022-12-26T23:22:28.628Z,101239.66
2022-12-26T23:25:14.166Z,101244.13
2022-12-26T23:27:59.751Z,101240.19
2022-12-26T23:30:45.345Z,101243.69
2022-12-26T23:33:32.409Z,101235.66
2022-12-26T23:36:17.616Z,101227.00
2022-12-26T23:39:03.411Z,101230.78
2022-12-26T23:41:48.916Z,101226.00
2022-12-26T23:44:34.127Z,101222.47
2022-12-26T23:47:19.735Z,101225.84
2022-12-26T23:50:06.872Z,101227.16
2022-12-26T23:52:52.063Z,101216.44
2022-12-26T23:55:41.185Z,101210.69
2022-12-26T23:58:26.344Z,101202.94
